Tiempo atmosférico en la estación meteorológica de Liceras, Soria (1150 m.)



Fecha
DESCASC
Temp. máxima en grados centígrados (hora)
DESCASC
Temp. mínima en grados centígrados (hora)
DESCASC
Temp. media en grados centígrados
DESCASC
Racha de viento máxima en m/sg (hora)
DESCASC
Velocidad máxima media en intervalos de 10 minutos(hora)
DESCASC
Precipitaciones diarias en mm
DESCASC
Precipitaciones de 00:00 a 06:00 en mm
DESCASC
Precipitaciones de 06:00 a 12:00 en mm
DESCASC
Precipitaciones de 12:00 a 18:00 en mm
DESCASC
Precipitaciones de 18:00 a 24:00 en mm
DESCASC
16-02-2020 16.3 (14:50) 2.9 (06:00) 9.6 12.5 (16:00) 8.33 (16:10) 0 0 0 0 0
14-02-2020 12.4 (16:40) 1.7 (07:30) 7 6.11 (00:20) 4.44 (00:20) 0 0 0 0 0
13-02-2020 9.7 (14:10) 4.8 (00:00) 7.3 10.83 (13:30) 7.78 (13:20) 0 0 0 0 0
12-02-2020 13.1 (13:50) 5.4 (00:00) 9.3 5.28 (05:10) 3.61 (05:10) 0 0 0 0 0
11-02-2020 13.6 (12:30) 4.4 (00:00) 9 11.39 (04:20) 8.06 (05:50) 0 0 0 0 0
10-02-2020 12 (17:00) 7.1 (00:00) 9.5 13.06 (12:00) 10 (16:00) 0 0 0 0 0
09-02-2020 10.9 (14:50) 1.3 (00:00) 6.1 12.22 (16:00) 8.61 (23:59) 0.2 0 0.2 0 0
08-02-2020 8.7 (10:50) 3 (00:00) 5.8 8.89 (14:00) 6.39 (14:00) 0.2 0 0 0.2 0
07-02-2020 10.4 (12:30) 2.1 (00:00) 6.2 9.44 (13:00) 7.22 (12:50) 0 0 0 0 0
06-02-2020 15 (13:10) 1.6 (00:00) 8.3 6.11 (16:00) 4.17 (04:40) 0 0 0 0 0
05-02-2020 11.3 (15:30) -2 (-00:0) 4.7 9.72 (21:00) 6.67 (16:20) 0 0 0 0 0
04-02-2020 13.4 (14:00) 2.1 (00:00) 7.7 10.28 (16:50) 7.22 (16:50) 0 0 0 0 0
03-02-2020 20.3 (13:20) 4.2 (08:10) 12.2 10.56 (17:00) 8.33 (16:20) 0 0 0 0 0
02-02-2020 15.3 (15:40) 8.3 (00:00) 11.8 8.33 (01:00) 6.11 (01:00) 0 0 0 0 0
01-02-2020 12.6 (14:40) 8.5 (00:00) 10.6 14.17 (05:20) 10.28 (05:20) 1.8 0.6 1.2 0 0
31-01-2020 11.7 (14:50) 7.5 (00:00) 9.6 12.22 (11:10) 8.61 (11:10) 2.8 2.6 0.2 0 0
30-01-2020 8.4 (14:50) 4.8 (00:00) 6.6 11.39 (10:30) 8.33 (10:40) 1.8 0 0 0 1.8
29-01-2020 10.7 (14:40) 6.8 (00:00) 8.8 12.5 (01:50) 8.89 (01:50) 0.8 0 0.4 0.4 0
28-01-2020 8.8 (14:10) 6.7 (00:00) 7.8 18.89 (02:00) 12.78 (02:00) 1.8 0.4 0.2 1 0.2
27-01-2020 9.9 (12:50) 1.5 (00:00) 5.7 16.67 (22:00) 10.28 (17:00) 0.2 0 0 0.2 0
26-01-2020 6.5 (15:00) 2 (00:00) 4.3 10 (23:59) 6.94 (23:59) 0.2 0.2 0 0 0
25-01-2020 8.5 (14:10) 1.2 (00:00) 4.9 10.83 (14:10) 6.67 (14:10) 3 0 0 0 3
24-01-2020 6.8 (15:10) 2.9 (00:00) 4.9 11.11 (11:00) 6.39 (11:10) 0 0 0 0 0
23-01-2020 8.5 (13:40) -0.8 (-00:0) 3.8 9.44 (16:40) 6.67 (02:10) 0.2 0.2 0 0 0
22-01-2020 3.9 (13:00) 0 (00:00) 2 12.78 (00:20) 8.89 (00:20) 0.4 0.4 0 0 0

Gráficas

Temp. máximas Temp. mínimas Temp. medias Precipitaciones Rachas de viento máximas Velocidades máximas media en intervalos de 10 minutos

Datos horarios

Fecha y hora oficial Temperatura (ºC) Velocidad del viento (km/h) Dirección del viento Racha (km/h) Dirección de racha Precipitación (mm) Presión (hPa) Tendencia (hPa) Humedad (%)
2020-02-20 23:00:00 2.3 10 Sudeste 16 Sur 0 -- -- 59
2020-02-20 22:00:00 5.1 10 Sur 14 Sur 0 -- -- 48
2020-02-20 21:00:00 4.1 6 Sudeste 14 Sur 0 -- -- 56
2020-02-20 20:00:00 7.2 9 Sudoeste 11 Sudoeste 0 -- -- 46
2020-02-20 19:00:00 8.9 6 Noroeste 12 Noroeste 0 -- -- 41
2020-02-20 18:00:00 12.7 9 Noroeste 15 Noroeste 0 -- -- 31
2020-02-20 17:00:00 12.8 11 Noroeste 20 Noroeste 0 -- -- 31
2020-02-20 16:00:00 12.9 14 Noroeste 32 Noroeste 0 -- -- 36
2020-02-20 15:00:00 12.8 9 Norte 21 Norte 0 -- -- 38
2020-02-20 14:00:00 12.3 13 Norte 27 Norte 0 -- -- 37
2020-02-20 13:00:00 12.2 14 Norte 22 Norte 0 -- -- 42
2020-02-20 12:00:00 12.1 9 Noroeste 15 Noroeste 0 -- -- 44
2020-02-20 11:00:00 10.6 8 Noroeste 13 Noroeste 0 -- -- 48
2020-02-20 10:00:00 11 0 Calma 9 Oeste 0 -- -- 40
2020-02-20 09:00:00 5.7 3 Sudoeste 10 Oeste 0 -- -- 47
2020-02-20 08:00:00 1.9 8 Sudoeste 15 Sudoeste 0 -- -- 50
2020-02-20 07:00:00 1.5 0 Calma 9 Sur 0 -- -- 48
2020-02-20 06:00:00 -- -- -- -- -- -- -- -- --
2020-02-20 05:00:00 -- -- -- -- -- -- -- -- --
2020-02-20 04:00:00 -- -- -- -- -- -- -- -- --
2020-02-20 03:00:00 0.8 2 Oeste 6 Sudoeste 0 -- -- 68
2020-02-20 02:00:00 1.6 0 Calma 5 Sur 0 -- -- 67
2020-02-20 01:00:00 1.5 2 Sudeste 8 Sudeste 0 -- -- 72
2020-02-20 00:00:00 1.4 5 Sudeste 10 Sudeste 0 -- -- 71
2020-02-19 23:00:00 1.6 4 Sudeste 11 Sudeste 0 -- -- 68
2020-02-19 22:00:00 3.2 6 Sudeste 9 Sudeste 0 -- -- 60
2020-02-19 21:00:00 5.2 3 Sudeste 4 Sudeste 0 -- -- 57
2020-02-19 20:00:00 5.6 0 Calma 6 Sur 0 -- -- 57
2020-02-19 19:00:00 7.9 4 Oeste 6 Noroeste 0 -- -- 48
2020-02-19 18:00:00 11.1 5 Noroeste 12 Noroeste 0 -- -- 38
2020-02-19 17:00:00 11.3 10 Noroeste 15 Norte 0 -- -- 39
2020-02-19 16:00:00 11.5 8 Norte 21 Norte 0 -- -- 29
2020-02-19 15:00:00 11.5 13 Norte 18 Norte 0 -- -- 31
2020-02-19 14:00:00 10.9 9 Noroeste 16 Noroeste 0 -- -- 39
2020-02-19 13:00:00 10.2 6 Noroeste 12 Noroeste 0 -- -- 39
2020-02-19 12:00:00 8.6 7 Noroeste 12 Oeste 0 -- -- 48
2020-02-19 11:00:00 6.4 6 Noroeste 12 Oeste 0 -- -- 58
2020-02-19 10:00:00 4.5 9 Oeste 13 Sudoeste 0 -- -- 67
2020-02-19 09:00:00 0.8 8 Oeste 13 Sudoeste 0 -- -- 81
2020-02-19 08:00:00 -2.4 3 Noroeste 6 Sudeste 0 -- -- 93
2020-02-19 07:00:00 -2.8 0 Calma 8 Sudoeste 0 -- -- 91
2020-02-19 06:00:00 -2.5 0 Calma 6 Sur 0 -- -- 93
2020-02-19 05:00:00 -1.9 4 Sur 11 Sur 0 -- -- 89
2020-02-19 04:00:00 -1.8 5 Sudeste 13 Sudoeste 0 -- -- 92
2020-02-19 03:00:00 -1.1 3 Sudoeste 7 Sur 0 -- -- 90
2020-02-19 02:00:00 -0.7 3 Noroeste 6 Sudeste 0 -- -- 90
2020-02-19 01:00:00 -0.3 5 Sudeste 10 Sudeste 0 -- -- 89
2020-02-19 00:00:00 0.7 10 Sur 14 Sur 0 -- -- 86
2020-02-18 23:00:00 1.4 5 Sudoeste 12 Sudoeste 0 -- -- 83
2020-02-18 22:00:00 1.9 9 Oeste 16 Oeste 0 -- -- 83
2020-02-18 21:00:00 2.7 10 Noroeste 15 Noroeste 0 -- -- 80
2020-02-18 20:00:00 3.2 5 Noroeste 8 Noroeste 0 -- -- 77
2020-02-18 19:00:00 4.2 8 Norte 14 Oeste 0 -- -- 76
2020-02-18 18:00:00 8.1 8 Oeste 14 Oeste 0 -- -- 65
2020-02-18 17:00:00 7.6 9 Noroeste 14 Noroeste 0 -- -- 64
2020-02-18 16:00:00 7.5 10 Norte 16 Norte 0 -- -- 67
2020-02-18 15:00:00 7.7 11 Norte 22 Norte 0 -- -- 64
2020-02-18 14:00:00 7.9 8 Norte 18 Nordeste 0 -- -- 65
2020-02-18 13:00:00 10.1 2 Este 14 Este 0 -- -- 57
2020-02-18 12:00:00 7.4 12 Sudeste 19 Sudeste 0 -- -- 70
2020-02-18 11:00:00 5.2 16 Sudeste 22 Sudeste 0 -- -- 78
2020-02-18 10:00:00 3.6 14 Sudeste 18 Sudeste 0 -- -- 83
2020-02-18 09:00:00 0.8 12 Sudeste 15 Sudeste 0 -- -- 91
2020-02-18 08:00:00 -1.6 9 Sudeste 14 Sudeste 0 -- -- 96
2020-02-18 07:00:00 -1.5 9 Sudeste 13 Sudeste 0 -- -- 96
2020-02-18 06:00:00 -1.1 10 Sudeste 17 Sudeste 0 -- -- 96
2020-02-18 05:00:00 -0.4 9 Sudeste 16 Sudeste 0 -- -- 94
2020-02-18 04:00:00 0.9 11 Sudeste 18 Sudeste 0 -- -- 96
2020-02-18 03:00:00 0.8 11 Sudeste 16 Sudeste 0 -- -- 95
2020-02-18 02:00:00 0.2 10 Sudeste 16 Sudeste 0 -- -- 93
2020-02-18 01:00:00 1 4 Sudeste 15 Sudeste 0 -- -- 90
2020-02-18 00:00:00 2.9 9 Oeste 14 Oeste 0 -- -- 85
2020-02-17 23:00:00 3.6 4 Noroeste 14 Oeste 0 -- -- 84
2020-02-17 22:00:00 4.1 12 Oeste 16 Noroeste 0 -- -- 85
2020-02-17 21:00:00 4.8 14 Noroeste 20 Oeste 0 -- -- 85
2020-02-17 20:00:00 5.7 13 Noroeste 22 Norte 0 -- -- 80
2020-02-17 19:00:00 6.2 15 Noroeste 27 Noroeste 0 -- -- 82
2020-02-17 18:00:00 7.9 18 Noroeste 27 Norte 0 -- -- 83
2020-02-17 17:00:00 8.4 16 Noroeste 27 Norte 0 -- -- 90
2020-02-17 16:00:00 7.9 20 Noroeste 35 Noroeste 0 -- -- 95
2020-02-17 15:00:00 8.7 23 Noroeste 37 Noroeste 0.6 -- -- 95
2020-02-17 14:00:00 9.5 27 Oeste 41 Noroeste 0 -- -- 93
2020-02-17 13:00:00 9.8 26 Oeste 40 Oeste 0 -- -- 89
2020-02-17 12:00:00 9.6 32 Oeste 44 Oeste 0 -- -- 88
2020-02-17 11:00:00 9.6 30 Oeste 46 Oeste 0 -- -- 86
2020-02-17 10:00:00 9.2 19 Oeste 33 Noroeste 0 -- -- 81
2020-02-17 09:00:00 8.6 25 Oeste 38 Oeste 0 -- -- 75
2020-02-17 08:00:00 8.5 21 Oeste 31 Oeste 0 -- -- 72
2020-02-17 07:00:00 6.7 17 Oeste 26 Oeste 0 -- -- 87
2020-02-17 06:00:00 6.4 18 Noroeste 28 Oeste 0 -- -- 86
2020-02-17 05:00:00 6.6 17 Noroeste 31 Oeste 0 -- -- 83
2020-02-17 04:00:00 7.5 23 Noroeste 32 Noroeste 0 -- -- 78
2020-02-17 03:00:00 7.8 5 Oeste 15 Oeste 0 -- -- 79
2020-02-17 02:00:00 7.7 10 Oeste 26 Oeste 0 -- -- 78
2020-02-17 01:00:00 8.2 20 Noroeste 33 Oeste 0 -- -- 76
2020-02-17 00:00:00 8.1 21 Oeste 28 Oeste 0 -- -- 75
2020-02-16 23:00:00 8.2 15 Noroeste 23 Noroeste 0 -- -- 76
2020-02-16 22:00:00 9 13 Noroeste 23 Oeste 0 -- -- 68
2020-02-16 21:00:00 9.6 6 Oeste 21 Oeste 0 -- -- 63
2020-02-16 20:00:00 11.1 13 Oeste 24 Oeste 0 -- -- 56
2020-02-16 19:00:00 12 17 Oeste 37 Oeste 0 -- -- 49
2020-02-16 18:00:00 14.6 22 Oeste 41 Oeste 0 -- -- 41
2020-02-16 17:00:00 15.4 28 Oeste 42 Oeste 0 -- -- 35
2020-02-16 16:00:00 16 30 Noroeste 45 Noroeste 0 -- -- 31
2020-02-16 15:00:00 16.2 27 Noroeste 35 Noroeste 0 -- -- 34
2020-02-16 14:00:00 15 19 Noroeste 30 Noroeste 0 -- -- 45
2020-02-16 13:00:00 14.4 15 Noroeste 21 Noroeste 0 -- -- 52
2020-02-16 12:00:00 13.6 8 Noroeste 19 Oeste 0 -- -- 57
2020-02-16 11:00:00 11 10 Noroeste 20 Noroeste 0 -- -- 72
2020-02-16 10:00:00 9.7 13 Oeste 24 Oeste 0 -- -- 69
2020-02-16 09:00:00 5.2 8 Sudoeste 10 Sudoeste 0 -- -- 82
2020-02-16 08:00:00 4.1 8 Sudoeste 10 Sudoeste 0 -- -- 89
2020-02-16 07:00:00 4.1 2 Noroeste 11 Oeste 0 -- -- 88
2020-02-16 06:00:00 2.9 3 Sur 14 Sudoeste 0 -- -- 89
2020-02-16 05:00:00 4 3 Norte 5 Noroeste 0 -- -- 84
2020-02-16 04:00:00 4.4 4 Sudeste 8 Oeste 0 -- -- 85
2020-02-16 03:00:00 5.9 4 Oeste 15 Sudoeste 0 -- -- 79
2020-02-16 02:00:00 8.2 14 Sudoeste 26 Sur 0 -- -- 74
2020-02-16 01:00:00 4.3 11 Sur 14 Sur 0 -- -- 89
2020-02-16 00:00:00 6.1 3 Sudoeste 9 Sudoeste 0 -- -- 82
2020-02-15 23:00:00 6.3 5 Sudoeste 9 Sudoeste 0 -- -- 84
2020-02-15 22:00:00 6.9 0 Calma 8 Sur 0 -- -- 82
2020-02-15 21:00:00 7.5 9 Sur 11 Sudoeste 0 -- -- 77
2020-02-15 20:00:00 8.9 9 Sudoeste 11 Sur 0 -- -- 75
2020-02-15 19:00:00 10.9 5 Oeste 13 Oeste 0 -- -- 56
2020-02-15 18:00:00 12.3 6 Noroeste 18 Noroeste 0 -- -- 49
2020-02-15 17:00:00 13.3 18 Noroeste 33 Noroeste 0 -- -- 45
2020-02-15 16:00:00 14.7 22 Noroeste 34 Noroeste 0 -- -- 46
2020-02-15 15:00:00 14.9 16 Norte 26 Noroeste 0 -- -- 46
2020-02-15 14:00:00 14.5 10 Noroeste 23 Noroeste 0 -- -- 43
2020-02-15 13:00:00 13.5 11 Noroeste 18 Noroeste 0 -- -- 55
2020-02-15 12:00:00 11.8 9 Noroeste 17 Noroeste 0 -- -- 55
2020-02-15 11:00:00 10.7 7 Norte 14 Noroeste 0 -- -- 59
2020-02-15 10:00:00 8.9 4 Noroeste 12 Sudeste 0 -- -- 74
2020-02-15 09:00:00 4.5 8 Sudeste 11 Sudeste 0 -- -- 79
2020-02-15 08:00:00 2.5 5 Sudeste 10 Sur 0 -- -- 90
2020-02-15 07:00:00 1.9 5 Sudeste 11 Sudoeste 0 -- -- 92
2020-02-15 06:00:00 2 0 Calma 6 Sur 0 -- -- 94
2020-02-15 05:00:00 3.1 0 Calma 9 Sudeste 0 -- -- 88
2020-02-15 04:00:00 2.7 5 Sudeste 10 Sudeste 0 -- -- 97
2020-02-15 03:00:00 2.3 0 Calma 10 Sudeste 0 -- -- 95
2020-02-15 02:00:00 3.6 7 Sur 12 Sur 0 -- -- 94
2020-02-15 01:00:00 3.6 3 Sur 9 Sur 0 -- -- 94
2020-02-15 00:00:00 3.9 6 Sur 12 Sudoeste 0 -- -- 92
2020-02-14 23:00:00 5 10 Sudoeste 12 Sudoeste 0 -- -- 90
2020-02-14 22:00:00 5.2 0 Calma 6 Sur 0 -- -- 90
2020-02-14 21:00:00 6.3 3 Sudoeste 6 Sur 0 -- -- 86
2020-02-14 20:00:00 7.3 0 Calma 6 Norte 0 -- -- 82
2020-02-14 19:00:00 8.6 4 Noroeste 5 Noroeste 0 -- -- 79
2020-02-14 18:00:00 12.1 6 Noroeste 13 Noroeste 0 -- -- 66
2020-02-14 17:00:00 12.3 7 Noroeste 13 Norte 0 -- -- 64
2020-02-14 16:00:00 12.3 8 Norte 14 Norte 0 -- -- 63
2020-02-14 15:00:00 11.4 6 Norte 13 Nordeste 0 -- -- 64
2020-02-14 14:00:00 10.5 5 Norte 10 Norte 0 -- -- 80
2020-02-14 13:00:00 9.2 4 Norte 10 Norte 0 -- -- 90
2020-02-14 12:00:00 7 2 Norte 9 Oeste 0 -- -- 94
2020-02-14 11:00:00 4.9 4 Oeste 9 Norte 0 -- -- 98
2020-02-14 10:00:00 4.3 5 Noroeste 13 Noroeste 0 -- -- 98
2020-02-14 09:00:00 3.4 0 Calma 10 Sudoeste 0 -- -- 99
2020-02-14 08:00:00 2.5 4 Sudoeste 8 Sudoeste 0 -- -- 98
2020-02-14 07:00:00 2.6 3 Sudoeste 9 Noroeste 0 -- -- 97
2020-02-14 06:00:00 3.7 4 Sudoeste 15 Noroeste 0 -- -- 98
2020-02-14 05:00:00 4.2 12 Noroeste 19 Noroeste 0 -- -- 96
2020-02-14 04:00:00 4.8 10 Noroeste 19 Oeste 0 -- -- 95
2020-02-14 03:00:00 4.3 12 Noroeste 19 Oeste 0 -- -- 94
2020-02-14 02:00:00 4.9 10 Noroeste 17 Oeste 0 -- -- 93
2020-02-14 01:00:00 5.1 14 Noroeste 22 Oeste 0 -- -- 93
2020-02-14 00:00:00 5.6 13 Oeste 19 Noroeste 0 -- -- 94
2020-02-13 23:00:00 4.8 13 Noroeste 19 Noroeste 0 -- -- 94
2020-02-13 22:00:00 6.1 17 Noroeste 23 Noroeste 0 -- -- 91
2020-02-13 21:00:00 6.3 15 Noroeste 22 Oeste 0 -- -- 91
2020-02-13 20:00:00 7.1 15 Noroeste 25 Oeste 0 -- -- 88
2020-02-13 19:00:00 7.4 15 Noroeste 27 Noroeste 0 -- -- 86
2020-02-13 18:00:00 8.7 18 Noroeste 31 Noroeste 0 -- -- 84
2020-02-13 17:00:00 9.4 19 Oeste 36 Oeste 0 -- -- 81
2020-02-13 16:00:00 9.2 23 Oeste 35 Oeste 0 -- -- 83
2020-02-13 15:00:00 9.1 23 Oeste 36 Oeste 0 -- -- 84
2020-02-13 14:00:00 8.9 25 Oeste 39 Oeste 0 -- -- 92
2020-02-13 13:00:00 7.9 24 Noroeste 33 Oeste 0 -- -- 96
2020-02-13 12:00:00 7.5 20 Noroeste 34 Oeste 0 -- -- 97
2020-02-13 11:00:00 7.6 21 Noroeste 35 Noroeste 0 -- -- 98
2020-02-13 10:00:00 7 21 Noroeste 28 Oeste 0 -- -- 98
2020-02-13 09:00:00 6.8 19 Oeste 28 Oeste 0 -- -- 98
2020-02-13 08:00:00 6.6 17 Oeste 28 Oeste 0 -- -- 97
2020-02-13 07:00:00 7.1 15 Oeste 24 Noroeste 0 -- -- 96
2020-02-13 06:00:00 7.3 12 Noroeste 20 Oeste 0 -- -- 94
2020-02-13 05:00:00 6.3 6 Sur 12 Sur 0 -- -- 92
2020-02-13 04:00:00 7 6 Sur 10 Sudoeste 0 -- -- 90
2020-02-13 03:00:00 7 7 Sudoeste 9 Sudoeste 0 -- -- 91
2020-02-13 02:00:00 6.9 0 Calma 6 Sudoeste 0 -- -- 92
2020-02-13 01:00:00 7 5 Sudoeste 10 Sur 0 -- -- 94
2020-02-13 00:00:00 6.6 4 Sur 6 Sur 0 -- -- 92
2020-02-12 23:00:00 6.9 3 Este 10 Sur 0 -- -- 91
2020-02-12 22:00:00 7.9 2 Sur 6 Sur 0 -- -- 90
2020-02-12 21:00:00 8.9 6 Sur 10 Sudoeste 0 -- -- 88
2020-02-12 20:00:00 9.7 8 Sudoeste 13 Sudoeste 0 -- -- 85
2020-02-12 19:00:00 10.4 4 Oeste 8 Noroeste 0 -- -- 80
2020-02-12 18:00:00 11.5 6 Noroeste 9 Noroeste 0 -- -- 75
2020-02-12 17:00:00 12.1 2 Sur 8 Sudeste 0 -- -- 75
2020-02-12 16:00:00 12.4 0 Calma 6 Sudeste 0 -- -- 72
2020-02-12 15:00:00 12.1 2 Nordeste 9 Nordeste 0 -- -- 72
2020-02-12 14:00:00 13.1 3 Nordeste 5 Norte 0 -- -- 68
2020-02-12 13:00:00 12.3 0 Calma 6 Norte 0 -- -- 73
2020-02-12 12:00:00 12.1 0 Calma 7 Norte 0 -- -- 74
2020-02-12 11:00:00 11 2 Nordeste 6 Sudeste 0 -- -- 81
2020-02-12 10:00:00 8.2 5 Sur 12 Sur 0 -- -- 95
2020-02-12 09:00:00 6.2 6 Sudeste 9 Sudeste 0 -- -- 96
2020-02-12 08:00:00 6.1 5 Sur 8 Sur 0 -- -- 95
2020-02-12 07:00:00 6 9 Sur 10 Sur 0 -- -- 95
2020-02-12 06:00:00 5.7 3 Sur 19 Norte 0 -- -- 96
2020-02-12 05:00:00 6.6 10 Norte 15 Norte 0 -- -- 91
2020-02-12 04:00:00 6.4 3 Sudeste 13 Sudoeste 0 -- -- 93
2020-02-12 03:00:00 5.5 6 Sudeste 11 Sur 0 -- -- 95
2020-02-12 02:00:00 5.9 2 Sudeste 7 Este 0 -- -- 94
2020-02-12 01:00:00 6.7 4 Sur 9 Sudoeste 0 -- -- 93
2020-02-12 00:00:00 6.5 4 Sudeste 10 Sur 0 -- -- 95
2020-02-11 23:00:00 7.3 2 Sudeste 7 Sur 0 -- -- 93
2020-02-11 22:00:00 7.4 0 Calma 9 Norte 0 -- -- 94
2020-02-11 21:00:00 7.9 7 Norte 10 Noroeste 0 -- -- 92
2020-02-11 20:00:00 9.2 8 Oeste 11 Oeste 0 -- -- 87
2020-02-11 19:00:00 9.5 4 Noroeste 17 Norte 0 -- -- 87
2020-02-11 18:00:00 10.5 9 Norte 17 Noroeste 0 -- -- 80
2020-02-11 17:00:00 11.2 9 Norte 17 Norte 0 -- -- 77
2020-02-11 16:00:00 12.1 12 Noroeste 24 Norte 0 -- -- 73
2020-02-11 15:00:00 11.7 18 Norte 28 Noroeste 0 -- -- 71
2020-02-11 14:00:00 11.7 19 Noroeste 29 Noroeste 0 -- -- 72
2020-02-11 13:00:00 12.9 20 Noroeste 36 Noroeste 0 -- -- 68
2020-02-11 12:00:00 12.2 17 Noroeste 26 Oeste 0 -- -- 73
2020-02-11 11:00:00 9.3 12 Oeste 18 Oeste 0 -- -- 91
2020-02-11 10:00:00 6.1 5 Noroeste 12 Noroeste 0 -- -- 97
2020-02-11 09:00:00 4.5 3 Norte 10 Noroeste 0 -- -- 96
2020-02-11 08:00:00 5 3 Noroeste 8 Noroeste 0 -- -- 95
2020-02-11 07:00:00 5.5 2 Norte 25 Oeste 0 -- -- 95
2020-02-11 06:00:00 6.8 26 Oeste 36 Oeste 0 -- -- 94
2020-02-11 05:00:00 6.8 27 Noroeste 41 Noroeste 0 -- -- 95
2020-02-11 04:00:00 7.1 26 Noroeste 39 Noroeste 0 -- -- 94
2020-02-11 03:00:00 6.6 20 Noroeste 30 Noroeste 0 -- -- 95
2020-02-11 02:00:00 7.4 23 Noroeste 36 Noroeste 0 -- -- 93
2020-02-11 01:00:00 7.6 23 Noroeste 33 Noroeste 0 -- -- 94
2020-02-11 00:00:00 8 26 Noroeste 35 Noroeste 0 -- -- 92
2020-02-10 23:00:00 8.5 28 Noroeste 40 Noroeste 0 -- -- 90
2020-02-10 22:00:00 9.3 23 Noroeste 35 Oeste 0 -- -- 91
2020-02-10 21:00:00 9.2 21 Noroeste 33 Oeste 0 -- -- 90
2020-02-10 20:00:00 9 17 Noroeste 26 Noroeste 0 -- -- 91
2020-02-10 19:00:00 8.7 10 Noroeste 29 Noroeste 0 -- -- 88
2020-02-10 18:00:00 11 24 Noroeste 37 Noroeste 0 -- -- 80
2020-02-10 17:00:00 12 25 Noroeste 45 Noroeste 0 -- -- 76
2020-02-10 16:00:00 11.5 36 Noroeste 46 Noroeste 0 -- -- 79
2020-02-10 15:00:00 11.1 28 Noroeste 42 Noroeste 0 -- -- 86
2020-02-10 14:00:00 10.3 31 Noroeste 40 Oeste 0 -- -- 88
2020-02-10 13:00:00 9.2 30 Oeste 45 Oeste 0 -- -- 93
2020-02-10 12:00:00 8.9 32 Oeste 47 Oeste 0 -- -- 95
2020-02-10 11:00:00 8.5 31 Oeste 44 Oeste 0 -- -- 95
2020-02-10 10:00:00 8.1 31 Oeste 40 Oeste 0 -- -- 97
2020-02-10 09:00:00 7.4 28 Oeste 42 Oeste 0 -- -- 97
2020-02-10 08:00:00 7.2 31 Noroeste 45 Noroeste 0 -- -- 96
2020-02-10 07:00:00 7.2 27 Noroeste 41 Noroeste 0 -- -- 95
2020-02-10 06:00:00 7.4 22 Noroeste 42 Oeste 0 -- -- 93
2020-02-10 05:00:00 7.4 29 Noroeste 40 Oeste 0 -- -- 92
2020-02-10 04:00:00 7.5 26 Noroeste 45 Noroeste 0 -- -- 90
2020-02-10 03:00:00 7.3 21 Oeste 40 Oeste 0 -- -- 91
2020-02-10 02:00:00 8 25 Oeste 38 Noroeste 0 -- -- 86
2020-02-10 01:00:00 8.2 31 Oeste 42 Oeste 0 -- -- 85
2020-02-10 00:00:00 8 31 Oeste 40 Oeste 0 -- -- 87
2020-02-09 23:00:00 8.1 25 Oeste 42 Oeste 0 -- -- 88
2020-02-09 22:00:00 8.2 22 Noroeste 32 Oeste 0 -- -- 87
2020-02-09 21:00:00 8.5 20 Oeste 28 Oeste 0 -- -- 83
2020-02-09 20:00:00 8.5 13 Oeste 19 Noroeste 0 -- -- 81
2020-02-09 19:00:00 8.6 17 Oeste 30 Noroeste 0 -- -- 80
2020-02-09 18:00:00 9.4 22 Oeste 32 Oeste 0 -- -- 75
2020-02-09 17:00:00 10.1 23 Oeste 33 Noroeste 0 -- -- 70
2020-02-09 16:00:00 10.4 30 Noroeste 44 Oeste 0 -- -- 69
2020-02-09 15:00:00 10.9 21 Oeste 37 Noroeste 0 -- -- 66
2020-02-09 14:00:00 10.5 23 Oeste 32 Noroeste 0 -- -- 68
2020-02-09 13:00:00 9.2 24 Oeste 33 Oeste 0 -- -- 75
2020-02-09 12:00:00 9.5 21 Noroeste 39 Oeste 0.2 -- -- 78
2020-02-09 11:00:00 7.8 14 Oeste 25 Oeste 0 -- -- 85
2020-02-09 10:00:00 6.4 15 Noroeste 23 Noroeste 0 -- -- 84
2020-02-09 09:00:00 5.9 4 Oeste 10 Oeste 0 -- -- 80
2020-02-09 08:00:00 5.1 5 Oeste 17 Oeste 0 -- -- 87
2020-02-09 07:00:00 4 10 Oeste 14 Oeste 0 -- -- 87
2020-02-09 06:00:00 3 10 Noroeste 14 Noroeste 0 -- -- 89
2020-02-09 05:00:00 1.8 6 Sudoeste 10 Sudoeste 0 -- -- 88
2020-02-09 04:00:00 1.8 6 Sudoeste 12 Sudoeste 0 -- -- 87
2020-02-09 03:00:00 2.5 4 Sudoeste 9 Oeste 0 -- -- 86
2020-02-09 02:00:00 3.1 3 Sudoeste 10 Oeste 0 -- -- 87
2020-02-09 01:00:00 3.2 5 Oeste 10 Sudoeste 0 -- -- 90
2020-02-09 00:00:00 3.1 3 Sur 8 Sudoeste 0 -- -- 87
2020-02-08 23:00:00 4 9 Sudoeste 11 Sudoeste 0 -- -- 92
2020-02-08 22:00:00 4.4 8 Oeste 12 Oeste 0 -- -- 93
2020-02-08 21:00:00 5.2 10 Oeste 13 Oeste 0 -- -- 94
2020-02-08 20:00:00 6 8 Noroeste 12 Noroeste 0 -- -- 93
2020-02-08 19:00:00 6.3 7 Oeste 11 Oeste 0 -- -- 92
2020-02-08 18:00:00 6.6 8 Noroeste 20 Noroeste 0 -- -- 90
2020-02-08 17:00:00 6.2 14 Noroeste 25 Noroeste 0 -- -- 92
2020-02-08 16:00:00 6.5 18 Oeste 28 Oeste 0 -- -- 90
2020-02-08 15:00:00 7.2 17 Oeste 32 Oeste 0 -- -- 89
2020-02-08 14:00:00 6.3 23 Oeste 32 Noroeste 0.2 -- -- 90
2020-02-08 13:00:00 8.1 16 Noroeste 26 Oeste 0 -- -- 77
2020-02-08 12:00:00 8.5 18 Oeste 28 Oeste 0 -- -- 72
2020-02-08 11:00:00 8.7 15 Oeste 22 Oeste 0 -- -- 72
2020-02-08 10:00:00 6.9 14 Oeste 24 Oeste 0 -- -- 81
2020-02-08 09:00:00 5.9 17 Oeste 26 Oeste 0 -- -- 88
2020-02-08 08:00:00 5.5 9 Noroeste 15 Oeste 0 -- -- 91
2020-02-08 07:00:00 5.8 10 Noroeste 16 Oeste 0 -- -- 90
2020-02-08 06:00:00 5.7 7 Noroeste 24 Noroeste 0 -- -- 91
2020-02-08 05:00:00 5.4 14 Oeste 23 Oeste 0 -- -- 91
2020-02-08 04:00:00 5.5 14 Oeste 24 Oeste 0 -- -- 91
2020-02-08 03:00:00 5.3 10 Noroeste 21 Oeste 0 -- -- 90
2020-02-08 02:00:00 4.4 8 Noroeste 12 Noroeste 0 -- -- 85
2020-02-08 01:00:00 3.6 5 Oeste 9 Oeste 0 -- -- 83
2020-02-08 00:00:00 5 5 Sudoeste 13 Oeste 0 -- -- 80
2020-02-07 23:00:00 6.4 6 Oeste 12 Oeste 0 -- -- 78
2020-02-07 22:00:00 6.2 8 Oeste 14 Noroeste 0 -- -- 79
2020-02-07 21:00:00 5.2 6 Oeste 14 Oeste 0 -- -- 81
2020-02-07 20:00:00 5.6 11 Oeste 16 Oeste 0 -- -- 81
2020-02-07 19:00:00 6.2 9 Noroeste 16 Noroeste 0 -- -- 79
2020-02-07 18:00:00 8.6 13 Noroeste 23 Noroeste 0 -- -- 66
2020-02-07 17:00:00 9.3 14 Noroeste 22 Noroeste 0 -- -- 66
2020-02-07 16:00:00 10.3 11 Oeste 25 Noroeste 0 -- -- 63
2020-02-07 15:00:00 9.2 15 Noroeste 27 Noroeste 0 -- -- 74
2020-02-07 14:00:00 10.1 20 Noroeste 33 Noroeste 0 -- -- 71
2020-02-07 13:00:00 10.3 25 Noroeste 34 Noroeste 0 -- -- 67
2020-02-07 12:00:00 9.6 9 Noroeste 19 Noroeste 0 -- -- 69
2020-02-07 11:00:00 9.9 2 Noroeste 7 Este 0 -- -- 64
2020-02-07 10:00:00 5.5 5 Sudeste 8 Sudeste 0 -- -- 84
2020-02-07 09:00:00 3.2 3 Sudeste 9 Oeste 0 -- -- 85
2020-02-07 08:00:00 2.4 2 Oeste 5 Sur 0 -- -- 89
2020-02-07 07:00:00 2.2 2 Sur 3 Sudeste 0 -- -- 88
2020-02-07 06:00:00 2.8 0 Calma 8 Sudoeste 0 -- -- 87
2020-02-07 05:00:00 3.6 5 Sur 9 Sudoeste 0 -- -- 84
2020-02-07 04:00:00 4.2 8 Sudoeste 11 Sudoeste 0 -- -- 84
2020-02-07 03:00:00 4.4 0 Calma 11 Sudoeste 0 -- -- 83
2020-02-07 02:00:00 5.2 9 Sudoeste 17 Sudoeste 0 -- -- 80
2020-02-07 01:00:00 3.5 6 Sudeste 14 Sur 0 -- -- 86
2020-02-07 00:00:00 4.4 8 Sudeste 12 Sudeste 0 -- -- 84
2020-02-06 23:00:00 4.8 9 Sudeste 13 Sudeste 0 -- -- 84
2020-02-06 22:00:00 5 7 Sudeste 11 Sudeste 0 -- -- 85
2020-02-06 21:00:00 5.9 3 Sudeste 9 Sudeste 0 -- -- 81
2020-02-06 20:00:00 7.4 5 Sudeste 11 Sudoeste 0 -- -- 75
2020-02-06 19:00:00 9.2 9 Sudoeste 14 Sur 0 -- -- 69
2020-02-06 18:00:00 11.4 5 Sudoeste 15 Nordeste 0 -- -- 55
2020-02-06 17:00:00 12.9 9 Nordeste 16 Nordeste 0 -- -- 50
2020-02-06 16:00:00 13.3 11 Norte 22 Norte 0 -- -- 50
2020-02-06 15:00:00 13.5 9 Nordeste 21 Nordeste 0 -- -- 51
2020-02-06 14:00:00 14.4 2 Nordeste 10 Este 0 -- -- 40
2020-02-06 13:00:00 14.2 4 Sudeste 11 Sudoeste 0 -- -- 42
2020-02-06 12:00:00 13 6 Sur 13 Sur 0 -- -- 43
2020-02-06 11:00:00 11 6 Sur 9 Sur 0 -- -- 49
2020-02-06 10:00:00 8.4 6 Sudeste 10 Sudeste 0 -- -- 60
2020-02-06 09:00:00 3.2 7 Sudeste 13 Sudeste 0 -- -- 74
2020-02-06 08:00:00 1.6 5 Sudeste 11 Sur 0 -- -- 77
2020-02-06 07:00:00 2.3 5 Sudeste 11 Sudeste 0 -- -- 71
2020-02-06 06:00:00 2.4 3 Sudeste 6 Sudeste 0 -- -- 73
2020-02-06 05:00:00 3.2 6 Sur 19 Sudoeste 0 -- -- 69
2020-02-06 04:00:00 3.6 5 Sudeste 17 Sudeste 0 -- -- 66
2020-02-06 03:00:00 4.3 8 Sudeste 21 Sur 0 -- -- 63
2020-02-06 02:00:00 4.2 9 Sur 14 Sur 0 -- -- 63
2020-02-06 01:00:00 5.8 4 Sudoeste 13 Sudoeste 0 -- -- 53
2020-02-06 00:00:00 6.8 13 Sudoeste 23 Sudoeste 0 -- -- 49
2020-02-05 23:00:00 6.8 13 Sur 23 Sudoeste 0 -- -- 49
2020-02-05 22:00:00 6.9 8 Sur 26 Sur 0 -- -- 50
2020-02-05 21:00:00 7.5 22 Sur 35 Sur 0 -- -- 46
2020-02-05 20:00:00 4.2 15 Sudeste 23 Sudeste 0 -- -- 65
2020-02-05 19:00:00 5 13 Sudeste 23 Sudeste 0 -- -- 65
2020-02-05 18:00:00 9.2 17 Sudeste 27 Sudeste 0 -- -- 50
2020-02-05 17:00:00 10.6 21 Sudeste 33 Este 0 -- -- 45
2020-02-05 16:00:00 11.2 20 Sudeste 30 Sudeste 0 -- -- 44
2020-02-05 15:00:00 11.2 16 Sudeste 24 Este 0 -- -- 40
2020-02-05 14:00:00 10.3 10 Este 22 Sudeste 0 -- -- 36
2020-02-05 13:00:00 9.3 16 Sudeste 27 Sudeste 0 -- -- 41
2020-02-05 12:00:00 9.1 17 Sudeste 28 Sudeste 0 -- -- 37
2020-02-05 11:00:00 6.9 20 Sudeste 28 Sudeste 0 -- -- 47
2020-02-05 10:00:00 3.1 12 Sudeste 18 Sudeste 0 -- -- 76
2020-02-05 09:00:00 -1.3 5 Sudeste 13 Sudeste 0 -- -- 86
2020-02-05 08:00:00 -1.6 7 Sudeste 13 Sudeste 0 -- -- 89
2020-02-05 07:00:00 -1.3 6 Sudeste 9 Sudeste 0 -- -- 88
2020-02-05 06:00:00 0.3 3 Sudeste 11 Sudoeste 0 -- -- 86
2020-02-05 05:00:00 0.7 3 Oeste 7 Oeste 0 -- -- 86
2020-02-05 04:00:00 0.2 5 Noroeste 9 Sudoeste 0 -- -- 91
2020-02-05 03:00:00 0.8 9 Oeste 18 Oeste 0 -- -- 93
2020-02-05 02:00:00 1.6 12 Oeste 18 Oeste 0 -- -- 92
2020-02-05 01:00:00 1.5 12 Oeste 17 Oeste 0 -- -- 93
2020-02-05 00:00:00 2.1 7 Noroeste 18 Oeste 0 -- -- 92
2020-02-04 23:00:00 3.5 15 Oeste 19 Oeste 0 -- -- 89
2020-02-04 22:00:00 3.8 11 Noroeste 18 Noroeste 0 -- -- 86
2020-02-04 21:00:00 4.7 15 Noroeste 20 Noroeste 0 -- -- 85
2020-02-04 20:00:00 5.9 11 Noroeste 16 Norte 0 -- -- 80
2020-02-04 19:00:00 7.8 12 Norte 29 Norte 0 -- -- 77
2020-02-04 18:00:00 9.9 21 Norte 33 Norte 0 -- -- 74
2020-02-04 12:00:00 -- -- -- -- -- -- -- -- --
2020-02-04 11:00:00 10.2 22 Noroeste 30 Noroeste 0 -- -- 75
2020-02-04 10:00:00 10.4 21 Noroeste 31 Noroeste 0 -- -- 74
2020-02-04 09:00:00 9.1 20 Oeste 30 Oeste 0 -- -- 78
2020-02-04 08:00:00 8.4 20 Oeste 31 Noroeste 0 -- -- 76
2020-02-04 07:00:00 7 22 Oeste 28 Oeste 0 -- -- 79
2020-02-04 06:00:00 8 19 Noroeste 24 Noroeste 0 -- -- 76
2020-02-04 05:00:00 8 15 Noroeste 26 Oeste 0 -- -- 76
2020-02-04 04:00:00 8 17 Oeste 25 Oeste 0 -- -- 72
2020-02-04 03:00:00 6.5 12 Noroeste 15 Noroeste 0 -- -- 76
2020-02-04 02:00:00 7.8 9 Noroeste 13 Oeste 0 -- -- 71
2020-02-04 01:00:00 9.3 14 Oeste 20 Oeste 0 -- -- 65
2020-02-04 00:00:00 8.3 14 Oeste 21 Noroeste 0 -- -- 68
2020-02-03 23:00:00 8.8 17 Noroeste 22 Oeste 0 -- -- 65
2020-02-03 22:00:00 10.6 15 Oeste 24 Oeste 0 -- -- 58
2020-02-03 21:00:00 10 16 Oeste 24 Noroeste 0 -- -- 63
2020-02-03 20:00:00 11.7 15 Noroeste 24 Noroeste 0 -- -- 56
2020-02-03 19:00:00 11.3 13 Noroeste 22 Noroeste 0 -- -- 62
2020-02-03 18:00:00 14.7 18 Noroeste 37 Noroeste 0 -- -- 49
2020-02-03 17:00:00 17.2 26 Noroeste 38 Noroeste 0 -- -- 44
2020-02-03 16:00:00 18.5 21 Noroeste 32 Noroeste 0 -- -- 42
2020-02-03 15:00:00 18.3 11 Norte 18 Norte 0 -- -- 45
2020-02-03 14:00:00 20.1 7 Oeste 19 Sudoeste 0 -- -- 38
2020-02-03 13:00:00 18.7 13 Sur 23 Sur 0 -- -- 37
2020-02-03 12:00:00 17.6 14 Sur 22 Sur 0 -- -- 36
2020-02-03 11:00:00 16.2 9 Sudeste 15 Sur 0 -- -- 44
2020-02-03 10:00:00 9.2 9 Sudeste 15 Sudeste 0 -- -- 72
2020-02-03 09:00:00 4.6 10 Sudeste 13 Sudeste 0 -- -- 88
2020-02-03 08:00:00 4.6 6 Sudeste 10 Sudeste 0 -- -- 88
2020-02-03 07:00:00 5.7 5 Sudeste 10 Sudoeste 0 -- -- 86
2020-02-03 06:00:00 6.3 2 Sudeste 9 Sudoeste 0 -- -- 82
2020-02-03 05:00:00 6.9 4 Sur 8 Sudeste 0 -- -- 84
2020-02-03 04:00:00 6.9 2 Este 12 Noroeste 0 -- -- 85
2020-02-03 03:00:00 7.5 9 Noroeste 12 Noroeste 0 -- -- 83
2020-02-03 02:00:00 8.3 4 Oeste 10 Oeste 0 -- -- 84
2020-02-03 01:00:00 7.7 3 Sudoeste 15 Noroeste 0 -- -- 91
2020-02-03 00:00:00 8.9 11 Noroeste 18 Noroeste 0 -- -- 89
2020-02-02 23:00:00 9.2 6 Oeste 13 Oeste 0 -- -- 91
2020-02-02 22:00:00 9.2 0 Calma 10 Oeste 0 -- -- 92
2020-02-02 21:00:00 9.7 7 Oeste 19 Oeste 0 -- -- 90
2020-02-02 20:00:00 10.9 14 Oeste 21 Oeste 0 -- -- 84
2020-02-02 19:00:00 10.5 7 Noroeste 19 Oeste 0 -- -- 85
2020-02-02 18:00:00 12.3 9 Noroeste 19 Noroeste 0 -- -- 78
2020-02-02 17:00:00 13.7 14 Noroeste 26 Noroeste 0 -- -- 75
2020-02-02 16:00:00 14.7 21 Noroeste 28 Noroeste 0 -- -- 68
2020-02-02 15:00:00 14.4 12 Noroeste 17 Norte 0 -- -- 75
2020-02-02 14:00:00 13.2 13 Norte 18 Norte 0 -- -- 79
2020-02-02 13:00:00 14.2 5 Noroeste 13 Norte 0 -- -- 75
2020-02-02 12:00:00 13.6 6 Norte 20 Noroeste 0 -- -- 78
2020-02-02 11:00:00 11 13 Noroeste 21 Noroeste 0 -- -- 84
2020-02-02 10:00:00 9.1 6 Noroeste 11 Noroeste 0 -- -- 94
2020-02-02 09:00:00 8.5 6 Noroeste 14 Noroeste 0 -- -- 95
2020-02-02 08:00:00 8.5 9 Noroeste 19 Noroeste 0 -- -- 94
2020-02-02 07:00:00 8.8 13 Noroeste 19 Noroeste 0 -- -- 95
2020-02-02 06:00:00 8.7 14 Noroeste 22 Noroeste 0 -- -- 95
2020-02-02 05:00:00 8.7 15 Noroeste 23 Noroeste 0 -- -- 95
2020-02-02 04:00:00 8.7 14 Noroeste 26 Oeste 0 -- -- 93
2020-02-02 03:00:00 8.8 17 Oeste 28 Oeste 0 -- -- 94
2020-02-02 02:00:00 8.7 15 Noroeste 24 Oeste 0 -- -- 91
2020-02-02 01:00:00 9.3 22 Oeste 30 Oeste 0 -- -- 90
2020-02-02 00:00:00 9 14 Oeste 24 Oeste 0 -- -- 88
2020-02-01 23:00:00 9.4 17 Oeste 24 Oeste 0 -- -- 87
2020-02-01 22:00:00 8.9 14 Oeste 24 Oeste 0 -- -- 91
2020-02-01 21:00:00 9.5 16 Noroeste 24 Oeste 0 -- -- 87
2020-02-01 20:00:00 10 15 Oeste 29 Oeste 0 -- -- 90
2020-02-01 19:00:00 10.8 17 Oeste 28 Oeste 0 -- -- 88
2020-02-01 18:00:00 11.4 17 Oeste 30 Oeste 0 -- -- 86
2020-02-01 17:00:00 11.7 19 Oeste 33 Oeste 0 -- -- 86
2020-02-01 16:00:00 12.1 23 Oeste 35 Oeste 0 -- -- 83
2020-02-01 15:00:00 12.4 26 Oeste 39 Oeste 0 -- -- 86
2020-02-01 14:00:00 12 24 Oeste 35 Oeste 0 -- -- 88
2020-02-01 13:00:00 10.9 22 Oeste 40 Noroeste 0 -- -- 95
2020-02-01 12:00:00 9.9 30 Noroeste 40 Noroeste 0.6 -- -- 97
2020-02-01 11:00:00 9.8 24 Noroeste 37 Oeste 0.2 -- -- 97
2020-02-01 10:00:00 9.5 27 Noroeste 38 Oeste 0.2 -- -- 98
2020-02-01 09:00:00 9.2 24 Noroeste 39 Oeste 0.2 -- -- 97
2020-02-01 08:00:00 9.3 20 Oeste 41 Oeste 0 -- -- 96
2020-02-01 07:00:00 9.3 29 Oeste 46 Noroeste 0 -- -- 96
2020-02-01 06:00:00 9.6 32 Oeste 51 Oeste 0 -- -- 96
2020-02-01 05:00:00 9.8 35 Oeste 48 Oeste 0.2 -- -- 95
2020-02-01 04:00:00 9.8 25 Oeste 42 Oeste 0 -- -- 93
2020-02-01 03:00:00 10.1 24 Oeste 37 Oeste 0.2 -- -- 92
2020-02-01 02:00:00 9.5 16 Oeste 27 Oeste 0 -- -- 92
2020-02-01 01:00:00 8.9 14 Oeste 24 Oeste 0.2 -- -- 94
2020-02-01 00:00:00 9.2 15 Oeste 28 Oeste 0 -- -- 93
2020-01-31 23:00:00 9 15 Oeste 20 Oeste 0 -- -- 91
2020-01-31 22:00:00 9.5 9 Noroeste 23 Oeste 0 -- -- 84
2020-01-31 21:00:00 8.7 5 Oeste 17 Oeste 0 -- -- 86
2020-01-31 20:00:00 8 10 Noroeste 14 Noroeste 0 -- -- 92
2020-01-31 19:00:00 8.1 9 Noroeste 20 Noroeste 0 -- -- 90
2020-01-31 18:00:00 9.2 15 Noroeste 25 Noroeste 0 -- -- 87
2020-01-31 17:00:00 10.2 17 Noroeste 31 Noroeste 0 -- -- 84
2020-01-31 16:00:00 10.2 22 Noroeste 35 Noroeste 0 -- -- 84
2020-01-31 15:00:00 11.4 22 Noroeste 29 Noroeste 0 -- -- 79
2020-01-31 14:00:00 10.5 20 Oeste 30 Noroeste 0 -- -- 81
2020-01-31 13:00:00 9.5 21 Noroeste 36 Noroeste 0 -- -- 93
2020-01-31 12:00:00 9.1 22 Noroeste 44 Noroeste 0 -- -- 97
2020-01-31 11:00:00 8.1 30 Noroeste 40 Noroeste 0.2 -- -- 98
2020-01-31 10:00:00 7.8 19 Noroeste 30 Oeste 0 -- -- 99
2020-01-31 09:00:00 7.5 19 Oeste 27 Noroeste 0 -- -- 99
2020-01-31 08:00:00 7.6 21 Noroeste 35 Oeste 0 -- -- 98
2020-01-31 07:00:00 7.6 23 Oeste 35 Oeste 0 -- -- 98
2020-01-31 06:00:00 7.6 20 Oeste 33 Oeste 1.2 -- -- 98
2020-01-31 05:00:00 7.6 20 Oeste 30 Oeste 0.6 -- -- 98
2020-01-31 04:00:00 7.6 23 Oeste 35 Oeste 0.2 -- -- 98
2020-01-31 03:00:00 7.5 21 Oeste 33 Oeste 0.2 -- -- 98
2020-01-31 02:00:00 7.5 22 Oeste 36 Oeste 0 -- -- 98
2020-01-31 01:00:00 7.5 22 Oeste 34 Oeste 0.4 -- -- 97
2020-01-31 00:00:00 7.5 23 Oeste 37 Oeste 0 -- -- 97
2020-01-30 23:00:00 7.6 25 Oeste 37 Oeste 0 -- -- 97
2020-01-30 22:00:00 7.5 23 Noroeste 36 Oeste 0 -- -- 96
2020-01-30 21:00:00 7.4 16 Oeste 25 Oeste 1.4 -- -- 95
2020-01-30 20:00:00 7 15 Noroeste 26 Oeste 0.4 -- -- 92
2020-01-30 19:00:00 7.6 15 Oeste 24 Oeste 0 -- -- 86
2020-01-30 18:00:00 7.1 21 Oeste 30 Noroeste 0 -- -- 87
2020-01-30 17:00:00 7.1 16 Noroeste 28 Noroeste 0 -- -- 89
2020-01-30 16:00:00 6.7 19 Noroeste 37 Oeste 0 -- -- 92
2020-01-30 15:00:00 8.2 27 Noroeste 40 Oeste 0 -- -- 79
2020-01-30 14:00:00 8 27 Noroeste 37 Oeste 0 -- -- 81
2020-01-30 13:00:00 7.8 22 Oeste 35 Oeste 0 -- -- 83
2020-01-30 12:00:00 6.9 20 Oeste 32 Oeste 0 -- -- 86
2020-01-30 11:00:00 5.9 23 Oeste 41 Oeste 0 -- -- 88
2020-01-30 10:00:00 6.1 22 Oeste 29 Oeste 0 -- -- 89
2020-01-30 09:00:00 5.3 4 Noroeste 10 Noroeste 0 -- -- 92
2020-01-30 08:00:00 5.6 5 Sudoeste 15 Oeste 0 -- -- 88
2020-01-30 07:00:00 5.2 6 Oeste 20 Oeste 0 -- -- 90
2020-01-30 06:00:00 6.2 13 Oeste 32 Oeste 0 -- -- 90
2020-01-30 05:00:00 6.5 21 Oeste 32 Oeste 0 -- -- 91
2020-01-30 04:00:00 7 23 Oeste 38 Oeste 0 -- -- 89
2020-01-30 03:00:00 7.4 25 Oeste 36 Oeste 0 -- -- 89
2020-01-30 02:00:00 7.3 16 Oeste 28 Oeste 0 -- -- 90
2020-01-30 01:00:00 7.9 22 Oeste 39 Oeste 0 -- -- 88
2020-01-30 00:00:00 7.9 14 Oeste 29 Oeste 0 -- -- 90
2020-01-29 23:00:00 7.9 18 Oeste 32 Oeste 0 -- -- 91
2020-01-29 22:00:00 8.2 17 Oeste 28 Oeste 0 -- -- 90
2020-01-29 21:00:00 8.5 20 Oeste 33 Oeste 0 -- -- 87
2020-01-29 20:00:00 8.5 20 Oeste 30 Oeste 0 -- -- 86
2020-01-29 19:00:00 8.4 19 Oeste 30 Oeste 0 -- -- 85
2020-01-29 18:00:00 8 15 Oeste 26 Oeste 0.2 -- -- 91
2020-01-29 17:00:00 8.3 18 Oeste 31 Oeste 0 -- -- 87
2020-01-29 16:00:00 9.1 23 Oeste 34 Oeste 0.2 -- -- 80
2020-01-29 15:00:00 10.3 24 Oeste 39 Noroeste 0 -- -- 74
2020-01-29 14:00:00 10.3 27 Oeste 39 Oeste 0 -- -- 75
2020-01-29 13:00:00 10.3 21 Oeste 35 Oeste 0 -- -- 76
2020-01-29 12:00:00 9.4 22 Oeste 36 Noroeste 0 -- -- 87
2020-01-29 11:00:00 7.9 22 Oeste 32 Oeste 0 -- -- 93
2020-01-29 10:00:00 7 21 Oeste 34 Oeste 0 -- -- 96
2020-01-29 09:00:00 6.8 22 Oeste 35 Oeste 0.2 -- -- 97
2020-01-29 08:00:00 6.9 26 Oeste 34 Oeste 0.2 -- -- 97
2020-01-29 07:00:00 6.9 23 Oeste 37 Oeste 0 -- -- 97
2020-01-29 06:00:00 7 22 Oeste 40 Oeste 0 -- -- 98
2020-01-29 05:00:00 7 25 Oeste 39 Oeste 0 -- -- 98
2020-01-29 04:00:00 7.3 28 Oeste 40 Oeste 0 -- -- 98
2020-01-29 03:00:00 7.5 30 Oeste 44 Oeste 0 -- -- 98
2020-01-29 02:00:00 7.6 31 Oeste 45 Oeste 0 -- -- 97
2020-01-29 01:00:00 7.7 26 Oeste 43 Oeste 0 -- -- 97
2020-01-29 00:00:00 7.8 29 Oeste 52 Oeste 0 -- -- 97
2020-01-28 23:00:00 7.8 27 Oeste 40 Oeste 0 -- -- 97
2020-01-28 22:00:00 7.8 26 Oeste 40 Oeste 0 -- -- 97
2020-01-28 21:00:00 7.8 24 Oeste 39 Oeste 0.2 -- -- 96
2020-01-28 20:00:00 7.9 23 Oeste 46 Oeste 0 -- -- 96
2020-01-28 19:00:00 8 23 Oeste 42 Oeste 0 -- -- 96
2020-01-28 18:00:00 8.2 33 Oeste 45 Oeste 0.4 -- -- 96
2020-01-28 17:00:00 8.4 30 Oeste 48 Oeste 0.2 -- -- 96
2020-01-28 16:00:00 8.8 25 Oeste 41 Noroeste 0.2 -- -- 95
2020-01-28 15:00:00 8.5 28 Oeste 50 Noroeste 0.2 -- -- 95
2020-01-28 14:00:00 8.5 27 Oeste 46 Oeste 0 -- -- 95
2020-01-28 13:00:00 8.1 30 Oeste 46 Oeste 0 -- -- 95
2020-01-28 12:00:00 7.8 31 Oeste 50 Oeste 0 -- -- 95
2020-01-28 11:00:00 7.5 33 Oeste 47 Oeste 0 -- -- 95
2020-01-28 10:00:00 7.3 31 Oeste 47 Oeste 0 -- -- 96
2020-01-28 09:00:00 6.8 32 Oeste 50 Oeste 0.2 -- -- 97
2020-01-28 08:00:00 6.8 39 Oeste 59 Oeste 0 -- -- 96
2020-01-28 07:00:00 6.8 32 Oeste 49 Oeste 0 -- -- 96
2020-01-28 06:00:00 7 38 Oeste 58 Oeste 0 -- -- 94
2020-01-28 05:00:00 7.1 42 Oeste 61 Oeste 0.2 -- -- 94
2020-01-28 04:00:00 7.3 37 Oeste 54 Oeste 0.2 -- -- 93
2020-01-28 03:00:00 7 37 Oeste 64 Oeste 0 -- -- 92
2020-01-28 02:00:00 7.9 46 Oeste 68 Oeste 0 -- -- 83
2020-01-28 01:00:00 7.9 39 Oeste 58 Oeste 0 -- -- 78
2020-01-28 00:00:00 7.5 33 Oeste 48 Oeste 0 -- -- 79
2020-01-27 23:00:00 6.9 22 Oeste 50 Oeste 0 -- -- 84
2020-01-27 22:00:00 6.9 32 Oeste 60 Oeste 0 -- -- 82
2020-01-27 21:00:00 6.7 31 Oeste 57 Oeste 0 -- -- 83
2020-01-27 20:00:00 6.8 34 Oeste 54 Oeste 0 -- -- 84
2020-01-27 19:00:00 6.8 30 Oeste 51 Oeste 0 -- -- 83
2020-01-27 18:00:00 6.2 20 Oeste 53 Oeste 0.2 -- -- 92
2020-01-27 17:00:00 8.4 37 Oeste 53 Oeste 0 -- -- 73
2020-01-27 16:00:00 9.1 28 Oeste 48 Oeste 0 -- -- 68
2020-01-27 15:00:00 8.3 21 Oeste 39 Oeste 0 -- -- 71
2020-01-27 14:00:00 7.6 25 Oeste 37 Oeste 0 -- -- 72
2020-01-27 13:00:00 9.3 21 Oeste 30 Oeste 0 -- -- 56
2020-01-27 12:00:00 8.2 15 Oeste 30 Oeste 0 -- -- 63
2020-01-27 11:00:00 6.4 17 Oeste 29 Oeste 0 -- -- 68
2020-01-27 10:00:00 3.9 10 Sudoeste 24 Oeste 0 -- -- 75
2020-01-27 09:00:00 3.5 18 Oeste 28 Oeste 0 -- -- 79
2020-01-27 08:00:00 2 12 Noroeste 19 Oeste 0 -- -- 81
2020-01-27 07:00:00 1.7 8 Sudoeste 16 Oeste 0 -- -- 81
2020-01-27 06:00:00 2 9 Oeste 19 Noroeste 0 -- -- 83
2020-01-27 05:00:00 3.2 15 Noroeste 28 Oeste 0 -- -- 75
2020-01-27 04:00:00 4.1 21 Oeste 31 Oeste 0 -- -- 73
2020-01-27 03:00:00 4.2 23 Oeste 34 Oeste 0 -- -- 72
2020-01-27 02:00:00 4 22 Oeste 33 Oeste 0 -- -- 72
2020-01-27 01:00:00 3.7 22 Oeste 32 Oeste 0 -- -- 74
2020-01-27 00:00:00 3.8 25 Oeste 36 Oeste 0 -- -- 76
2020-01-26 23:00:00 3.6 24 Oeste 36 Oeste 0 -- -- 79
2020-01-26 22:00:00 3.2 18 Noroeste 27 Oeste 0 -- -- 85
2020-01-26 21:00:00 3.3 17 Oeste 25 Oeste 0 -- -- 84
2020-01-26 20:00:00 2 6 Noroeste 14 Noroeste 0 -- -- 88
2020-01-26 19:00:00 3 10 Noroeste 23 Oeste 0 -- -- 85
2020-01-26 18:00:00 4.6 19 Oeste 31 Oeste 0 -- -- 78
2020-01-26 17:00:00 5.8 21 Oeste 29 Oeste 0 -- -- 72
2020-01-26 16:00:00 5.4 21 Oeste 30 Oeste 0 -- -- 74
2020-01-26 15:00:00 6.5 23 Oeste 30 Oeste 0 -- -- 73
2020-01-26 14:00:00 5.5 17 Oeste 27 Oeste 0 -- -- 75
2020-01-26 13:00:00 4.9 14 Oeste 27 Oeste 0 -- -- 85
2020-01-26 12:00:00 2.9 19 Oeste 29 Noroeste 0 -- -- 92
2020-01-26 11:00:00 3 19 Oeste 24 Oeste 0 -- -- 95
2020-01-26 10:00:00 2.3 17 Oeste 23 Noroeste 0 -- -- 96
2020-01-26 09:00:00 2.2 13 Noroeste 25 Noroeste 0 -- -- 97
2020-01-26 08:00:00 2.3 12 Noroeste 23 Noroeste 0 -- -- 97
2020-01-26 07:00:00 2.6 13 Noroeste 27 Oeste 0 -- -- 97
2020-01-26 06:00:00 2.9 15 Oeste 25 Oeste 0 -- -- 97
2020-01-26 05:00:00 2.9 15 Oeste 25 Oeste 0 -- -- 97
2020-01-26 04:00:00 3.1 18 Oeste 25 Oeste 0.2 -- -- 96
2020-01-26 03:00:00 3.3 8 Noroeste 12 Noroeste 0 -- -- 94
2020-01-26 02:00:00 3.1 5 Sudoeste 6 Sudoeste 0 -- -- 95
2020-01-26 01:00:00 2.9 5 Sudoeste 8 Sur 0 -- -- 95
2020-01-26 00:00:00 3.1 5 Sudoeste 7 Sudoeste 0 -- -- 95
2020-01-25 23:00:00 3.2 2 Sudoeste 6 Noroeste 0.8 -- -- 94
2020-01-25 22:00:00 3.4 2 Oeste 9 Sudoeste 1.8 -- -- 91
2020-01-25 21:00:00 3.7 4 Sudoeste 10 Oeste 0.4 -- -- 90
2020-01-25 20:00:00 4.2 5 Sudoeste 15 Sudoeste 0 -- -- 86
2020-01-25 19:00:00 4 7 Sur 21 Sudoeste 0 -- -- 86
2020-01-25 18:00:00 5 11 Sur 22 Sur 0 -- -- 84
2020-01-25 17:00:00 6 12 Sur 23 Sudoeste 0 -- -- 78
2020-01-25 16:00:00 6.9 16 Sudoeste 28 Sudoeste 0 -- -- 71
2020-01-25 15:00:00 7.4 19 Sudoeste 39 Sudoeste 0 -- -- 68
2020-01-25 14:00:00 8.1 16 Sudoeste 31 Sudoeste 0 -- -- 68
2020-01-25 13:00:00 7.6 17 Sudoeste 32 Sudoeste 0 -- -- 72
2020-01-25 12:00:00 7.2 20 Sudoeste 31 Sudoeste 0 -- -- 76
2020-01-25 11:00:00 5.4 15 Sur 28 Sur 0 -- -- 81
2020-01-25 10:00:00 3.6 18 Sudeste 29 Sudeste 0 -- -- 88
2020-01-25 09:00:00 2.8 13 Sudeste 22 Sudeste 0 -- -- 89
2020-01-25 08:00:00 3.1 15 Sudeste 20 Sudeste 0 -- -- 91
2020-01-25 07:00:00 3.3 13 Sudeste 22 Sudeste 0 -- -- 90
2020-01-25 06:00:00 3.6 24 Sudeste 30 Sudeste 0 -- -- 90
2020-01-25 05:00:00 2.3 16 Sudeste 28 Sudeste 0 -- -- 94
2020-01-25 04:00:00 2.6 19 Sudeste 30 Sudeste 0 -- -- 89
2020-01-25 03:00:00 2.9 18 Sudeste 26 Sudeste 0 -- -- 86
2020-01-25 02:00:00 2.5 12 Sur 21 Sur 0 -- -- 87
2020-01-25 01:00:00 2.8 9 Sudeste 16 Sur 0 -- -- 82
2020-01-25 00:00:00 3.3 11 Sudeste 20 Sudeste 0 -- -- 85
2020-01-24 23:00:00 3.2 7 Sur 17 Sudoeste 0 -- -- 87
2020-01-24 22:00:00 3.3 11 Sur 17 Sudoeste 0 -- -- 83
2020-01-24 21:00:00 3.9 10 Sur 16 Sur 0 -- -- 82
2020-01-24 20:00:00 3.1 8 Sur 18 Sudoeste 0 -- -- 84
2020-01-24 19:00:00 3.7 9 Sur 14 Sur 0 -- -- 80
2020-01-24 18:00:00 5 10 Sudoeste 32 Sur 0 -- -- 75
2020-01-24 17:00:00 5.6 18 Sur 30 Sur 0 -- -- 78
2020-01-24 16:00:00 6.4 16 Sur 27 Sur 0 -- -- 76
2020-01-24 15:00:00 6.7 14 Sudoeste 26 Sur 0 -- -- 74
2020-01-24 14:00:00 5.8 15 Sudeste 28 Sur 0 -- -- 80
2020-01-24 13:00:00 6 11 Sur 27 Sudoeste 0 -- -- 77
2020-01-24 12:00:00 4.6 8 Noroeste 39 Sur 0 -- -- 80
2020-01-24 11:00:00 4.6 22 Sur 40 Sur 0 -- -- 84
2020-01-24 10:00:00 4.5 13 Sur 34 Sudeste 0 -- -- 83
2020-01-24 09:00:00 3.8 10 Sudeste 33 Este 0 -- -- 87
2020-01-24 08:00:00 3.9 9 Sur 24 Sudeste 0 -- -- 87
2020-01-24 07:00:00 3.7 5 Este 14 Sudeste 0 -- -- 87
2020-01-24 06:00:00 3.6 4 Este 19 Sur 0 -- -- 86
2020-01-24 05:00:00 3.8 14 Sur 37 Sur 0 -- -- 87
2020-01-24 04:00:00 3.8 4 Este 18 Sur 0 -- -- 87
2020-01-24 03:00:00 3.8 4 Nordeste 29 Sur 0 -- -- 86
2020-01-24 02:00:00 4.1 20 Sur 33 Sur 0 -- -- 84
2020-01-24 01:00:00 3.1 6 Sudeste 18 Sudeste 0 -- -- 86
2020-01-24 00:00:00 3 8 Este 19 Sudeste 0 -- -- 86
2020-01-23 23:00:00 2.1 10 Sudeste 27 Sudeste 0 -- -- 85
2020-01-23 22:00:00 3.5 15 Sur 30 Sur 0 -- -- 81
2020-01-23 21:00:00 3.6 17 Sur 30 Sudoeste 0 -- -- 80
2020-01-23 20:00:00 3.4 10 Sur 25 Sur 0 -- -- 81
2020-01-23 19:00:00 3.6 10 Sudeste 31 Sur 0 -- -- 81
2020-01-23 18:00:00 5 15 Sur 27 Sur 0 -- -- 76
2020-01-23 17:00:00 6.4 15 Sur 34 Sur 0 -- -- 72
2020-01-23 16:00:00 7.3 19 Sur 28 Sudoeste 0 -- -- 67
2020-01-23 15:00:00 8.1 17 Sudoeste 26 Sur 0 -- -- 63
2020-01-23 14:00:00 7.9 11 Sur 28 Sudoeste 0 -- -- 65
2020-01-23 13:00:00 7.3 17 Sur 28 Sur 0 -- -- 67
2020-01-23 12:00:00 8.1 5 Sur 24 Sur 0 -- -- 66
2020-01-23 11:00:00 7.1 3 Oeste 14 Sur 0 -- -- 65
2020-01-23 10:00:00 1.1 9 Este 24 Sudeste 0 -- -- 93
2020-01-23 09:00:00 -0.5 17 Sudeste 25 Sudeste 0 -- -- 96
2020-01-23 08:00:00 -0.5 16 Sudeste 28 Sudeste 0 -- -- 96
2020-01-23 07:00:00 -0.1 18 Sudeste 23 Este 0 -- -- 94
2020-01-23 06:00:00 0 12 Sudeste 27 Sur 0 -- -- 92
2020-01-23 05:00:00 0.2 19 Sudeste 29 Este 0 -- -- 93
2020-01-23 04:00:00 0.7 12 Sudeste 33 Sudeste 0 -- -- 91
2020-01-23 03:00:00 1.3 18 Sur 33 Sudeste 0 -- -- 93
2020-01-23 02:00:00 1.4 21 Sur 31 Sudeste 0.2 -- -- 94
2020-01-23 01:00:00 1.3 17 Sudeste 30 Sudeste 0 -- -- 96
2020-01-23 00:00:00 1 17 Sudeste 38 Sudeste 0 -- -- 96
2020-01-22 23:00:00 0 21 Sudeste 28 Sudeste 0 -- -- 95
2020-01-22 22:00:00 0.7 19 Sudeste 29 Sudeste 0 -- -- 94
2020-01-22 21:00:00 1 15 Sudeste 30 Sudeste 0 -- -- 94
2020-01-22 20:00:00 1.8 20 Sudeste 28 Sudeste 0 -- -- 92
2020-01-22 19:00:00 2 21 Sudeste 31 Sudeste 0 -- -- 92
2020-01-22 18:00:00 2.4 20 Sudeste 30 Sudeste 0 -- -- 90
2020-01-22 17:00:00 2.7 17 Sudeste 34 Sudeste 0 -- -- 87
2020-01-22 16:00:00 3.5 21 Sudeste 31 Sudeste 0 -- -- 84
2020-01-22 15:00:00 3.4 23 Sudeste 33 Sudeste 0 -- -- 86
2020-01-22 14:00:00 3 24 Sudeste 37 Sudeste 0 -- -- 86
2020-01-22 13:00:00 3.9 26 Sudeste 32 Sudeste 0 -- -- 87
2020-01-22 12:00:00 2.2 25 Sudeste 35 Sudeste 0 -- -- 92
2020-01-22 11:00:00 1.7 24 Sudeste 35 Sudeste 0 -- -- 95
2020-01-22 10:00:00 1.3 19 Sudeste 35 Sudeste 0 -- -- 97
2020-01-22 09:00:00 0.9 18 Sudeste 38 Sudeste 0 -- -- 97
2020-01-22 08:00:00 1.1 22 Sudeste 37 Sudeste 0 -- -- 97
2020-01-22 07:00:00 0.6 22 Sudeste 33 Sudeste 0 -- -- 97
2020-01-22 06:00:00 0.5 21 Sudeste 31 Sudeste 0 -- -- 96
2020-01-22 05:00:00 0.4 20 Sudeste 40 Este 0 -- -- 95
2020-01-22 04:00:00 0.4 30 Sudeste 41 Este 0 -- -- 95
2020-01-22 03:00:00 0.4 26 Sudeste 41 Sudeste 0 -- -- 95
2020-01-22 02:00:00 0.6 25 Este 38 Este 0.2 -- -- 95
2020-01-22 01:00:00 0.4 20 Sudeste 46 Este 0.2 -- -- 95
2020-01-22 00:00:00 1.1 32 Sudeste 45 Sudeste 0 -- -- 94